createdAt,value
2022-10-13T00:00:50.566Z,15.10
2022-10-13T00:03:18.576Z,15.20
2022-10-13T00:05:49.042Z,15.40
2022-10-13T00:08:19.495Z,15.50
2022-10-13T00:10:48.997Z,15.60
2022-10-13T00:13:17.109Z,15.40
2022-10-13T00:15:45.730Z,15.40
2022-10-13T00:18:13.241Z,15.20
2022-10-13T00:20:50.392Z,15.30
2022-10-13T00:23:18.494Z,15.40
2022-10-13T00:25:50.419Z,15.40
2022-10-13T00:28:19.439Z,15.30
2022-10-13T00:30:47.404Z,15.20
2022-10-13T00:33:14.951Z,15.20
2022-10-13T00:35:43.431Z,15.00
2022-10-13T00:38:11.466Z,14.90
2022-10-13T00:40:55.897Z,14.90
2022-10-13T00:43:24.291Z,14.90
2022-10-13T00:45:53.881Z,15.00
2022-10-13T00:48:29.424Z,15.20
2022-10-13T00:50:58.405Z,15.10
2022-10-13T00:53:31.135Z,15.00
2022-10-13T00:55:58.407Z,15.00
2022-10-13T00:58:31.666Z,15.00
2022-10-13T01:00:59.548Z,15.10
2022-10-13T01:03:27.355Z,15.00
2022-10-13T01:05:59.693Z,15.00
2022-10-13T01:08:28.090Z,15.00
2022-10-13T01:11:13.087Z,15.00
2022-10-13T01:13:53.049Z,14.90
2022-10-13T01:16:33.272Z,15.00
2022-10-13T01:19:00.571Z,15.10
2022-10-13T01:21:55.555Z,15.10
2022-10-13T01:24:46.942Z,15.10
2022-10-13T01:27:31.057Z,14.90
2022-10-13T01:30:08.757Z,15.00
2022-10-13T01:32:59.593Z,14.90
2022-10-13T01:35:33.650Z,14.90
2022-10-13T01:38:00.653Z,14.90
2022-10-13T01:40:55.854Z,14.80
2022-10-13T01:43:31.589Z,14.80
2022-10-13T01:46:07.951Z,14.80
2022-10-13T01:48:38.267Z,14.80
2022-10-13T01:51:07.600Z,14.80
2022-10-13T01:53:34.797Z,14.90
2022-10-13T01:56:02.144Z,15.00
2022-10-13T01:58:32.427Z,15.10
2022-10-13T02:01:24.189Z,15.00
2022-10-13T02:04:09.765Z,15.00
2022-10-13T02:06:58.075Z,14.90
2022-10-13T02:09:39.721Z,15.00
2022-10-13T02:12:12.335Z,14.90
2022-10-13T02:14:42.329Z,14.80
2022-10-13T02:17:10.329Z,14.70
2022-10-13T02:19:39.014Z,14.50
2022-10-13T02:22:08.424Z,14.70
2022-10-13T02:24:36.076Z,14.60
2022-10-13T02:27:06.097Z,14.50
2022-10-13T02:29:33.102Z,14.50
2022-10-13T02:32:00.400Z,14.80
2022-10-13T02:34:27.367Z,14.70
2022-10-13T02:36:54.192Z,14.70
2022-10-13T02:39:21.335Z,14.70
2022-10-13T02:41:48.657Z,14.70
2022-10-13T02:44:15.867Z,14.70
2022-10-13T02:46:43.382Z,14.60
2022-10-13T02:49:10.613Z,14.60
2022-10-13T02:51:40.109Z,14.70
2022-10-13T02:54:07.689Z,14.70
2022-10-13T02:56:34.715Z,14.80
2022-10-13T02:59:01.572Z,14.80
2022-10-13T03:01:28.424Z,14.80
2022-10-13T03:03:55.354Z,14.60
2022-10-13T03:06:22.663Z,14.60
2022-10-13T03:08:49.619Z,14.80
2022-10-13T03:11:16.440Z,14.70
2022-10-13T03:13:43.551Z,14.80
2022-10-13T03:16:10.684Z,14.90
2022-10-13T03:18:37.669Z,15.10
2022-10-13T03:21:06.742Z,14.90
2022-10-13T03:23:33.780Z,14.70
2022-10-13T03:26:01.140Z,14.90
2022-10-13T03:28:28.725Z,14.60
2022-10-13T03:31:07.121Z,14.50
2022-10-13T03:33:34.059Z,14.70
2022-10-13T03:36:03.147Z,14.60
2022-10-13T03:38:32.016Z,14.70
2022-10-13T03:41:04.213Z,14.70
2022-10-13T03:43:31.101Z,14.70
2022-10-13T03:46:00.276Z,14.80
2022-10-13T03:48:28.785Z,14.80
2022-10-13T03:50:56.141Z,14.80
2022-10-13T03:53:23.459Z,14.80
2022-10-13T03:55:55.798Z,14.70
2022-10-13T03:58:24.600Z,14.60
2022-10-13T04:00:52.227Z,14.70
2022-10-13T04:03:19.692Z,14.70
2022-10-13T04:05:47.123Z,14.50
2022-10-13T04:08:14.634Z,14.70
2022-10-13T04:10:42.026Z,14.70
2022-10-13T04:13:09.655Z,14.80
2022-10-13T04:15:40.804Z,14.80
2022-10-13T04:18:08.647Z,14.70
2022-10-13T04:20:41.842Z,14.70
2022-10-13T04:23:09.185Z,14.60
2022-10-13T04:25:38.046Z,14.60
2022-10-13T04:28:06.389Z,14.60
2022-10-13T04:30:35.028Z,14.50
2022-10-13T04:33:02.294Z,14.60
2022-10-13T04:35:29.648Z,14.60
2022-10-13T04:37:59.455Z,14.70
2022-10-13T04:40:27.468Z,14.60
2022-10-13T04:42:54.389Z,14.70
2022-10-13T04:45:21.489Z,14.60
2022-10-13T04:47:48.282Z,14.60
2022-10-13T04:50:15.155Z,14.70
2022-10-13T04:52:41.988Z,14.50
2022-10-13T04:55:09.137Z,14.50
2022-10-13T04:57:36.208Z,14.50
2022-10-13T05:00:03.996Z,14.50
2022-10-13T05:02:30.929Z,14.50
2022-10-13T05:04:57.764Z,14.40
2022-10-13T05:07:24.725Z,14.40
2022-10-13T05:09:52.050Z,14.40
2022-10-13T05:12:19.543Z,14.50
2022-10-13T05:14:46.809Z,14.40
2022-10-13T05:17:13.991Z,14.40
2022-10-13T05:19:41.487Z,14.30
2022-10-13T05:22:08.395Z,14.30
2022-10-13T05:24:38.753Z,14.50
2022-10-13T05:27:14.770Z,14.60
2022-10-13T05:29:42.094Z,14.60
2022-10-13T05:32:09.155Z,14.60
2022-10-13T05:34:36.191Z,14.40
2022-10-13T05:37:03.137Z,14.20
2022-10-13T05:39:30.173Z,14.10
2022-10-13T05:41:57.042Z,14.10
2022-10-13T05:44:24.879Z,14.20
2022-10-13T05:46:52.751Z,14.20
2022-10-13T05:49:19.825Z,14.20
2022-10-13T05:51:50.751Z,14.30
2022-10-13T05:54:31.118Z,14.20
2022-10-13T05:57:02.992Z,14.10
2022-10-13T05:59:33.498Z,14.20
2022-10-13T06:02:02.469Z,14.20
2022-10-13T06:04:37.986Z,14.30
2022-10-13T06:07:05.747Z,14.20
2022-10-13T06:09:35.864Z,14.10
2022-10-13T06:12:02.861Z,14.00
2022-10-13T06:14:30.164Z,14.00
2022-10-13T06:16:56.975Z,14.00
2022-10-13T06:19:23.816Z,14.10
2022-10-13T06:21:50.906Z,14.00
2022-10-13T06:24:18.003Z,14.20
2022-10-13T06:26:45.011Z,14.10
2022-10-13T06:29:12.055Z,14.00
2022-10-13T06:31:38.944Z,14.20
2022-10-13T06:34:05.887Z,14.20
2022-10-13T06:36:32.714Z,14.20
2022-10-13T06:38:59.657Z,14.20
2022-10-13T06:41:26.589Z,14.20
2022-10-13T06:43:53.447Z,14.20
2022-10-13T06:46:20.616Z,14.20
2022-10-13T06:48:51.047Z,14.30
2022-10-13T06:51:18.505Z,14.30
2022-10-13T06:53:45.688Z,14.40
2022-10-13T06:56:14.346Z,14.40
2022-10-13T06:58:41.397Z,14.30
2022-10-13T07:01:12.103Z,14.30
2022-10-13T07:03:38.948Z,14.40
2022-10-13T07:06:06.652Z,14.30
2022-10-13T07:08:34.525Z,14.20
2022-10-13T07:11:12.936Z,14.30
2022-10-13T07:13:46.293Z,14.30
2022-10-13T07:16:14.782Z,14.40
2022-10-13T07:18:41.968Z,14.50
2022-10-13T07:21:09.406Z,14.60
2022-10-13T07:23:36.313Z,14.50
2022-10-13T07:26:07.959Z,14.40
2022-10-13T07:28:35.110Z,14.40
2022-10-13T07:31:07.829Z,14.50
2022-10-13T07:33:34.949Z,14.40
2022-10-13T07:36:02.094Z,14.30
2022-10-13T07:38:28.898Z,14.30
2022-10-13T07:40:56.070Z,14.30
2022-10-13T07:43:23.063Z,14.40
2022-10-13T07:45:49.916Z,14.40
2022-10-13T07:48:16.852Z,14.60
2022-10-13T07:50:43.780Z,14.50
2022-10-13T07:53:10.914Z,14.50
2022-10-13T07:55:37.910Z,14.70
2022-10-13T07:58:04.930Z,14.70
2022-10-13T08:00:31.948Z,14.90
2022-10-13T08:02:58.809Z,14.90
2022-10-13T08:05:25.647Z,14.80
2022-10-13T08:07:54.772Z,14.90
2022-10-13T08:10:26.058Z,14.90
2022-10-13T08:12:53.008Z,14.90
2022-10-13T08:15:19.966Z,14.90
2022-10-13T08:17:46.857Z,14.90
2022-10-13T08:20:13.933Z,14.80
2022-10-13T08:22:40.718Z,14.90
2022-10-13T08:25:07.835Z,15.10
2022-10-13T08:27:50.256Z,15.20
2022-10-13T08:30:19.352Z,15.20
2022-10-13T08:32:46.550Z,15.10
2022-10-13T08:35:13.518Z,15.20
2022-10-13T08:37:40.496Z,15.10
2022-10-13T08:40:11.593Z,15.10
2022-10-13T08:42:38.724Z,15.30
2022-10-13T08:45:40.473Z,15.20
2022-10-13T08:48:01.986Z,15.30
2022-10-13T08:50:33.929Z,15.30
2022-10-13T08:53:14.972Z,15.30
2022-10-13T08:55:44.651Z,15.40
2022-10-13T08:58:27.020Z,15.10
2022-10-13T09:01:09.095Z,15.20
2022-10-13T09:03:54.577Z,15.40
2022-10-13T09:06:31.832Z,15.40
2022-10-13T09:09:01.531Z,15.40
2022-10-13T09:11:36.203Z,15.40
2022-10-13T09:14:13.066Z,15.20
2022-10-13T09:16:43.375Z,15.20
2022-10-13T09:19:23.869Z,15.00
2022-10-13T09:22:14.044Z,15.20
2022-10-13T09:24:41.081Z,15.40
2022-10-13T09:27:15.192Z,15.10
2022-10-13T09:29:44.292Z,15.10
2022-10-13T09:32:20.656Z,14.60
2022-10-13T09:34:48.944Z,14.40
2022-10-13T09:37:24.478Z,14.40
2022-10-13T09:40:14.234Z,14.60
2022-10-13T09:42:41.213Z,14.60
2022-10-13T09:45:22.193Z,14.50
2022-10-13T09:47:53.310Z,14.70
2022-10-13T09:50:32.839Z,14.60
2022-10-13T09:53:24.110Z,14.60
2022-10-13T09:56:07.182Z,14.50
2022-10-13T09:58:36.756Z,14.20
2022-10-13T10:01:05.084Z,14.30
2022-10-13T10:03:38.661Z,14.30
2022-10-13T10:06:14.586Z,14.30
2022-10-13T10:09:09.674Z,14.20
2022-10-13T10:11:43.592Z,14.40
2022-10-13T10:14:15.514Z,14.40
2022-10-13T10:16:55.197Z,14.30
2022-10-13T10:19:32.096Z,14.30
2022-10-13T10:22:10.635Z,14.30
2022-10-13T10:24:49.423Z,14.30
2022-10-13T10:27:38.931Z,14.60
2022-10-13T10:30:21.157Z,14.60
2022-10-13T10:33:12.753Z,14.50
2022-10-13T10:36:03.090Z,14.60
2022-10-13T10:38:38.903Z,14.70
2022-10-13T10:41:31.477Z,14.80
2022-10-13T10:44:14.949Z,14.70
2022-10-13T10:47:17.552Z,14.70
2022-10-13T10:49:49.045Z,14.80
2022-10-13T10:52:27.184Z,14.80
2022-10-13T10:55:09.441Z,14.80
2022-10-13T10:57:53.717Z,14.90
2022-10-13T11:00:24.813Z,14.90
2022-10-13T11:03:33.220Z,15.00
2022-10-13T11:06:21.942Z,15.20
2022-10-13T11:08:50.272Z,15.40
2022-10-13T11:11:24.874Z,15.20
2022-10-13T11:13:55.735Z,15.30
2022-10-13T11:16:31.522Z,15.50
2022-10-13T11:19:25.076Z,15.30
2022-10-13T11:21:58.129Z,15.50
2022-10-13T11:24:52.760Z,15.40
2022-10-13T11:27:34.260Z,15.30
2022-10-13T11:30:02.360Z,15.30
2022-10-13T11:32:32.896Z,15.50
2022-10-13T11:35:04.834Z,15.50
2022-10-13T11:38:06.093Z,15.60
2022-10-13T11:41:21.825Z,15.40
2022-10-13T11:44:20.978Z,15.70
2022-10-13T11:46:54.214Z,16.00
2022-10-13T11:49:39.486Z,16.00
2022-10-13T11:52:12.480Z,16.10
2022-10-13T11:54:54.923Z,15.90
2022-10-13T11:57:26.702Z,15.80
2022-10-13T11:59:56.868Z,16.00
2022-10-13T12:02:26.493Z,16.00
2022-10-13T12:05:08.803Z,16.30
2022-10-13T12:07:41.612Z,16.30
2022-10-13T12:10:23.655Z,16.50
2022-10-13T12:12:51.285Z,16.50
2022-10-13T12:15:44.551Z,16.40
2022-10-13T12:18:34.069Z,16.50
2022-10-13T12:21:20.038Z,16.40
2022-10-13T12:23:48.831Z,16.30
2022-10-13T12:26:18.067Z,16.50
2022-10-13T12:28:57.177Z,16.30
2022-10-13T12:31:25.648Z,16.10
2022-10-13T12:33:55.392Z,16.10
2022-10-13T12:36:30.123Z,16.30
2022-10-13T12:39:05.610Z,16.30
2022-10-13T12:41:35.308Z,16.40
2022-10-13T12:44:06.705Z,16.40
2022-10-13T12:46:40.377Z,16.50
2022-10-13T12:49:12.691Z,16.60
2022-10-13T12:51:40.106Z,16.80
2022-10-13T12:54:09.629Z,16.60
2022-10-13T12:56:36.594Z,16.80
2022-10-13T12:59:04.187Z,16.60
2022-10-13T13:01:35.257Z,16.60
2022-10-13T13:04:35.691Z,16.70
2022-10-13T13:07:05.468Z,17.00
2022-10-13T13:09:34.350Z,17.00
2022-10-13T13:12:28.275Z,17.00
2022-10-13T13:14:56.477Z,16.90
2022-10-13T13:17:57.754Z,16.80
2022-10-13T13:20:33.203Z,16.90
2022-10-13T13:23:00.779Z,16.90
2022-10-13T13:25:27.956Z,17.20
2022-10-13T13:27:54.869Z,17.30
2022-10-13T13:30:23.685Z,17.30
2022-10-13T13:32:51.414Z,17.10
2022-10-13T13:35:18.652Z,17.10
2022-10-13T13:37:49.855Z,17.10
2022-10-13T13:40:23.472Z,17.30
2022-10-13T13:42:50.600Z,17.30
2022-10-13T13:45:20.822Z,17.30
2022-10-13T13:47:48.451Z,17.00
2022-10-13T13:50:18.061Z,17.20
2022-10-13T13:52:45.094Z,17.20
2022-10-13T13:55:12.094Z,17.10
2022-10-13T13:57:39.063Z,17.00
2022-10-13T14:00:06.951Z,17.10
2022-10-13T14:02:33.938Z,17.10
2022-10-13T14:05:00.838Z,16.90
2022-10-13T14:07:27.661Z,17.00
2022-10-13T14:09:57.856Z,16.90
2022-10-13T14:12:30.714Z,16.80
2022-10-13T14:14:58.704Z,16.70
2022-10-13T14:17:30.123Z,16.60
2022-10-13T14:19:57.185Z,16.70
2022-10-13T14:22:24.210Z,16.80
2022-10-13T14:24:51.244Z,16.70
2022-10-13T14:27:18.054Z,16.60
2022-10-13T14:29:45.232Z,16.70
2022-10-13T14:32:12.681Z,16.60
2022-10-13T14:34:39.691Z,16.60
2022-10-13T14:37:06.595Z,16.70
2022-10-13T14:39:33.915Z,16.60
2022-10-13T14:42:00.997Z,16.70
2022-10-13T14:44:28.233Z,16.70
2022-10-13T14:46:55.673Z,16.80
2022-10-13T14:49:22.935Z,16.70
2022-10-13T14:51:49.759Z,16.80
2022-10-13T14:54:16.848Z,16.80
2022-10-13T14:56:44.867Z,16.70
2022-10-13T14:59:12.535Z,16.80
2022-10-13T15:01:43.530Z,16.80
2022-10-13T15:04:10.737Z,16.60
2022-10-13T15:06:41.771Z,16.50
2022-10-13T15:11:37.035Z,16.30
2022-10-13T15:14:04.601Z,16.30
2022-10-13T15:16:37.063Z,16.20
2022-10-13T15:19:04.367Z,16.30
2022-10-13T15:21:31.274Z,16.20
2022-10-13T15:23:58.456Z,16.10
2022-10-13T15:26:25.422Z,16.40
2022-10-13T15:28:53.303Z,16.40
2022-10-13T15:31:22.102Z,16.20
2022-10-13T15:33:51.886Z,16.20
2022-10-13T15:36:20.168Z,16.10
2022-10-13T15:38:47.113Z,16.10
2022-10-13T15:41:13.974Z,16.10
2022-10-13T15:43:41.135Z,16.00
2022-10-13T15:46:12.760Z,16.00
2022-10-13T15:48:40.287Z,16.30
2022-10-13T15:51:13.882Z,16.00
2022-10-13T15:53:40.995Z,16.00
2022-10-13T15:56:08.923Z,16.10
2022-10-13T15:58:36.348Z,16.20
2022-10-13T16:01:12.006Z,16.10
2022-10-13T16:03:39.338Z,16.30
2022-10-13T16:06:08.379Z,16.50
2022-10-13T16:08:40.280Z,16.40
2022-10-13T16:11:13.361Z,16.30
2022-10-13T16:13:41.394Z,16.20
2022-10-13T16:16:08.908Z,16.40
2022-10-13T16:18:37.971Z,16.40
2022-10-13T16:21:17.292Z,16.40
2022-10-13T16:23:46.264Z,16.40
2022-10-13T16:26:13.339Z,16.50
2022-10-13T16:28:40.463Z,16.50
2022-10-13T16:31:13.699Z,16.40
2022-10-13T16:33:41.937Z,16.40
2022-10-13T16:36:11.692Z,16.40
2022-10-13T16:38:38.824Z,16.40
2022-10-13T16:41:12.194Z,16.40
2022-10-13T16:43:39.168Z,16.50
2022-10-13T16:46:08.353Z,16.50
2022-10-13T16:48:35.338Z,16.60
2022-10-13T16:51:12.185Z,16.60
2022-10-13T16:53:39.464Z,16.60
2022-10-13T16:56:08.225Z,16.50
2022-10-13T16:58:35.976Z,16.50
2022-10-13T17:01:11.562Z,16.60
2022-10-13T17:03:39.203Z,16.40
2022-10-13T17:06:07.100Z,16.30
2022-10-13T17:08:34.106Z,16.30
2022-10-13T17:11:01.481Z,16.50
2022-10-13T17:13:28.611Z,16.40
2022-10-13T17:15:57.079Z,16.40
2022-10-13T17:18:25.440Z,16.30
2022-10-13T17:20:59.703Z,16.20
2022-10-13T17:23:28.327Z,16.40
2022-10-13T17:25:56.481Z,16.60
2022-10-13T17:28:23.621Z,16.40
2022-10-13T17:30:58.955Z,16.20
2022-10-13T17:33:27.662Z,16.10
2022-10-13T17:36:06.900Z,16.30
2022-10-13T17:38:34.132Z,16.30
2022-10-13T17:41:06.589Z,16.20
2022-10-13T17:43:34.779Z,16.40
2022-10-13T17:46:34.358Z,16.30
2022-10-13T17:48:57.648Z,16.50
2022-10-13T17:51:24.972Z,16.30
2022-10-13T17:53:52.497Z,16.30
2022-10-13T17:56:25.235Z,16.30
2022-10-13T17:58:52.764Z,16.20
2022-10-13T18:01:27.190Z,16.40
2022-10-13T18:03:56.492Z,16.50
2022-10-13T18:06:24.063Z,16.50
2022-10-13T18:08:51.648Z,16.40
2022-10-13T18:11:20.959Z,16.60
2022-10-13T18:13:48.595Z,16.60
2022-10-13T18:16:21.193Z,16.40
2022-10-13T18:18:50.086Z,16.30
2022-10-13T18:21:19.789Z,16.40
2022-10-13T18:23:47.637Z,16.30
2022-10-13T18:26:19.327Z,16.30
2022-10-13T18:28:47.950Z,16.30
2022-10-13T18:31:16.261Z,16.30
2022-10-13T18:33:43.450Z,16.20
2022-10-13T18:36:20.097Z,16.30
2022-10-13T18:38:47.948Z,16.30
2022-10-13T18:41:15.593Z,16.40
2022-10-13T18:43:42.997Z,16.60
2022-10-13T18:46:10.604Z,16.50
2022-10-13T18:48:37.658Z,16.40
2022-10-13T18:51:09.876Z,16.30
2022-10-13T18:53:39.239Z,16.20
2022-10-13T18:56:10.186Z,16.40
2022-10-13T18:58:37.210Z,16.40
2022-10-13T19:01:10.254Z,16.20
2022-10-13T19:03:39.139Z,16.40
2022-10-13T19:06:08.654Z,16.30
2022-10-13T19:08:36.105Z,16.20
2022-10-13T19:11:14.459Z,16.30
2022-10-13T19:13:42.038Z,16.40
2022-10-13T19:16:09.402Z,16.40
2022-10-13T19:18:36.600Z,16.30
2022-10-13T19:21:04.139Z,16.20
2022-10-13T19:23:31.308Z,16.20
2022-10-13T19:25:59.020Z,16.10
2022-10-13T19:28:26.339Z,16.10
2022-10-13T19:30:53.302Z,16.30
2022-10-13T19:33:20.399Z,16.40
2022-10-13T19:35:51.618Z,16.50
2022-10-13T19:38:18.907Z,16.40
2022-10-13T19:40:49.630Z,16.40
2022-10-13T19:43:17.548Z,16.40
2022-10-13T19:45:59.619Z,16.30
2022-10-13T19:48:29.150Z,16.40
2022-10-13T19:50:56.288Z,16.40
2022-10-13T19:53:23.153Z,16.40
2022-10-13T19:55:50.168Z,16.50
2022-10-13T19:58:17.424Z,16.30
2022-10-13T20:00:45.872Z,16.20
2022-10-13T20:03:14.322Z,16.20
2022-10-13T20:05:41.668Z,16.20
2022-10-13T20:08:10.806Z,16.20
2022-10-13T20:10:39.347Z,16.30
2022-10-13T20:13:07.300Z,16.20
2022-10-13T20:15:34.264Z,16.20
2022-10-13T20:18:01.343Z,16.20
2022-10-13T20:20:28.594Z,16.20
2022-10-13T20:22:55.589Z,16.40
2022-10-13T20:25:22.567Z,16.50
2022-10-13T20:27:49.682Z,16.20
2022-10-13T20:30:16.915Z,16.30
2022-10-13T20:32:43.882Z,16.30
2022-10-13T20:35:10.941Z,16.20
2022-10-13T20:37:37.931Z,16.10
2022-10-13T20:40:05.637Z,16.30
2022-10-13T20:42:32.477Z,16.30
2022-10-13T20:45:00.804Z,16.10
2022-10-13T20:47:27.876Z,16.20
2022-10-13T20:49:54.814Z,16.10
2022-10-13T20:52:21.655Z,16.20
2022-10-13T20:54:48.661Z,16.30
2022-10-13T20:57:15.565Z,16.30
2022-10-13T20:59:42.481Z,16.30
2022-10-13T21:02:13.092Z,16.20
2022-10-13T21:04:40.204Z,16.30
2022-10-13T21:07:07.036Z,16.30
2022-10-13T21:09:35.817Z,16.20
2022-10-13T21:12:02.907Z,16.30
2022-10-13T21:14:29.866Z,16.30
2022-10-13T21:16:56.932Z,16.30
2022-10-13T21:19:24.063Z,16.10
2022-10-13T21:21:50.896Z,16.10
2022-10-13T21:24:17.897Z,16.10
2022-10-13T21:27:50.227Z,16.20
2022-10-13T21:30:17.652Z,16.20
2022-10-13T21:32:44.980Z,16.30
2022-10-13T21:35:11.807Z,16.20
2022-10-13T21:37:39.204Z,16.30
2022-10-13T21:40:07.242Z,16.30
2022-10-13T21:42:34.616Z,16.50
2022-10-13T21:45:03.246Z,16.60
2022-10-13T21:47:32.536Z,16.50
2022-10-13T21:50:00.449Z,16.40
2022-10-13T21:52:28.478Z,16.50
2022-10-13T21:54:55.489Z,16.30
2022-10-13T21:57:23.031Z,16.20
2022-10-13T21:59:50.133Z,16.20
2022-10-13T22:02:17.120Z,16.10
2022-10-13T22:04:43.985Z,16.10
2022-10-13T22:07:10.767Z,16.20
2022-10-13T22:09:37.799Z,16.30
2022-10-13T22:12:05.372Z,16.20
2022-10-13T22:14:32.495Z,16.10
2022-10-13T22:16:59.554Z,16.20
2022-10-13T22:19:26.560Z,16.30
2022-10-13T22:21:53.579Z,16.40
2022-10-13T22:24:21.915Z,16.40
2022-10-13T22:26:50.049Z,16.40
2022-10-13T22:29:20.232Z,16.40
2022-10-13T22:31:47.233Z,16.30
2022-10-13T22:34:15.429Z,16.20
2022-10-13T22:36:45.128Z,16.20
2022-10-13T22:39:13.073Z,16.20
2022-10-13T22:41:40.118Z,16.30
2022-10-13T22:44:07.523Z,16.30
2022-10-13T22:46:37.046Z,16.30
2022-10-13T22:49:05.360Z,16.20
2022-10-13T22:51:33.655Z,16.30
2022-10-13T22:54:00.540Z,16.40
2022-10-13T22:56:30.257Z,16.50
2022-10-13T22:58:59.893Z,16.40
2022-10-13T23:01:27.652Z,16.40
2022-10-13T23:03:57.275Z,16.40
2022-10-13T23:06:27.179Z,16.40
2022-10-13T23:08:54.355Z,16.40
2022-10-13T23:11:21.644Z,16.30
2022-10-13T23:13:49.093Z,16.30
2022-10-13T23:16:19.823Z,16.30
2022-10-13T23:18:47.107Z,16.30
2022-10-13T23:21:16.814Z,16.30
2022-10-13T23:23:44.116Z,16.40
2022-10-13T23:26:17.817Z,16.40
2022-10-13T23:28:45.188Z,16.30
2022-10-13T23:31:15.299Z,16.30
2022-10-13T23:33:42.514Z,16.50
2022-10-13T23:36:16.766Z,16.40
2022-10-13T23:38:44.116Z,16.60
2022-10-13T23:41:13.355Z,16.60
2022-10-13T23:43:41.625Z,16.40
2022-10-13T23:46:11.541Z,16.50
2022-10-13T23:48:40.043Z,16.40
2022-10-13T23:51:09.051Z,16.50
2022-10-13T23:53:38.276Z,16.50
2022-10-13T23:56:06.466Z,16.50
2022-10-13T23:58:36.662Z,16.50
